Time;durP1;ratioP1;P1;durP2;ratioP2;P2;SDS_P1;SDS_P2;PMS_P1;PMS_P2;Temp;Humidity;BMP_temperature;BMP_pressure;BME280_temperature;BME280_humidity;BME280_pressure;Samples;Min_cycle;Max_cycle;Signal;HPM_P1;HPM_P2
2022/02/16 00:00:10;;;;;;;;;;;;;;;;;;5048708;28;19962;-56
2022/02/16 00:02:35;;;;;;;;;;;;;;;;;;5026976;28;19925;-55
2022/02/16 00:05:01;;;;;;;;;;;;;;;;;;5024382;28;19974;-56
2022/02/16 00:07:26;;;;;;;;;;;;;;;;;;5024337;28;19925;-57
2022/02/16 00:09:51;;;;;;;;;;;;;;;;;;5026884;28;19960;-56
2022/02/16 00:12:17;;;;;;;;;;;;;;;;;;5024042;28;19925;-55
2022/02/16 00:14:42;;;;;;;;;;;;;;;;;;5023468;28;20139;-53
2022/02/16 00:17:08;;;;;;;;;;;;;;;;;;5025502;28;19924;-53
2022/02/16 00:19:34;;;;;;;;;;;;;;;;;;5023804;28;19932;-54
2022/02/16 00:21:59;;;;;;;;;;;;;;;;;;5025352;28;20342;-55
2022/02/16 00:24:25;;;;;;;;;;;;;;;;;;5024069;28;20571;-56
2022/02/16 00:26:50;;;;;;;;;;;;;;;;;;5022080;28;19963;-55
2022/02/16 00:29:16;;;;;;;;;;;;;;;;;;5026496;28;19964;-54
2022/02/16 00:31:41;;;;;;;;;;;;;;;;;;5026487;28;20011;-56
2022/02/16 00:34:06;;;;;;;;;;;;;;;;;;5028877;28;19921;-56
2022/02/16 00:36:32;;;;;;;;;;;;;;;;;;5027737;28;20004;-56
2022/02/16 00:38:57;;;;;;;;;;;;;;;;;;5029609;28;19992;-54
2022/02/16 00:41:23;;;;;;;;;;;;;;;;;;5028212;28;19921;-55
2022/02/16 00:43:49;;;;;;;;;;;;;;;;;;5026607;28;19932;-54
2022/02/16 00:46:15;;;;;;;;;;;;;;;;;;5027577;28;19921;-55
2022/02/16 00:48:40;;;;;;;;;;;;;;;;;;5028617;28;20224;-54
2022/02/16 00:51:06;;;;;;;;;;;;;;;;;;5025528;28;19921;-55
2022/02/16 00:53:31;;;;;;;;;;;;;;;;;;5027929;28;19925;-55
2022/02/16 00:55:57;;;;;;;;;;;;;;;;;;5028533;28;20455;-54
2022/02/16 00:58:22;;;;;;;;;;;;;;;;;;5028127;28;20053;-56
2022/02/16 01:00:48;;;;;;;;;;;;;;;;;;5048509;28;19932;-55
2022/02/16 01:03:14;;;;;;;;;;;;;;;;;;5048094;28;19924;-56
2022/02/16 01:05:39;;;;;;;;;;;;;;;;;;5046029;28;19921;-55
2022/02/16 01:08:04;;;;;;;;;;;;;;;;;;5048785;28;20366;-55
2022/02/16 01:10:30;;;;;;;;;;;;;;;;;;5048548;28;19931;-56
2022/02/16 01:12:55;;;;;;;;;;;;;;;;;;5025102;28;19944;-56
2022/02/16 01:15:21;;;;;;;;;;;;;;;;;;5023234;28;19925;-57
2022/02/16 01:17:46;;;;;;;;;;;;;;;;;;5025826;28;20346;-54
2022/02/16 01:20:12;;;;;;;;;;;;;;;;;;5027311;28;19925;-55
2022/02/16 01:22:37;;;;;;;;;;;;;;;;;;5027045;28;19932;-55
2022/02/16 01:25:02;;;;;;;;;;;;;;;;;;5027234;28;19933;-53
2022/02/16 01:27:31;;;;;;;;;;;;;;;;;;5026845;28;19925;-56
2022/02/16 01:29:57;;;;;;;;;;;;;;;;;;5027538;28;19936;-57
2022/02/16 01:32:23;;;;;;;;;;;;;;;;;;5016975;28;20046;-56
2022/02/16 01:34:48;;;;;;;;;;;;;;;;;;5028496;28;19931;-57
2022/02/16 01:37:14;;;;;;;;;;;;;;;;;;5027720;28;20325;-54
2022/02/16 01:39:39;;;;;;;;;;;;;;;;;;5022969;28;20277;-55
2022/02/16 01:42:04;;;;;;;;;;;;;;;;;;5026256;28;19932;-56
2022/02/16 01:44:33;;;;;;;;;;;;;;;;;;5028129;28;20054;-57
2022/02/16 01:47:02;;;;;;;;;;;;;;;;;;5049492;28;19931;-55
2022/02/16 01:49:27;;;;;;;;;;;;;;;;;;5048540;28;19928;-53
2022/02/16 01:51:53;;;;;;;;;;;;;;;;;;5050343;28;19946;-54
2022/02/16 01:54:18;;;;;;;;;;;;;;;;;;5048638;28;19967;-55
2022/02/16 01:56:44;;;;;;;;;;;;;;;;;;5063323;28;19950;-55
2022/02/16 01:59:09;;;;;;;;;;;;;;;;;;5049704;28;19982;-54
2022/02/16 02:01:35;;;;;;;;;;;;;;;;;;5048856;28;19924;-55
2022/02/16 02:04:00;;;;;;;;;;;;;;;;;;5030403;28;19920;-55
2022/02/16 02:06:25;;;;;;;;;;;;;;;;;;5046936;28;19941;-55
2022/02/16 02:08:51;;;;;;;;;;;;;;;;;;5048493;28;19929;-55
2022/02/16 02:11:16;;;;;;;;;;;;;;;;;;5029026;28;19928;-53
2022/02/16 02:13:42;;;;;;;;;;;;;;;;;;5048131;28;19925;-55
2022/02/16 02:16:07;;;;;;;;;;;;;;;;;;5047529;28;19948;-52
2022/02/16 02:18:33;;;;;;;;;;;;;;;;;;5051864;28;20419;-56
2022/02/16 02:20:58;;;;;;;;;;;;;;;;;;5029183;28;19921;-57
2022/02/16 02:23:24;;;;;;;;;;;;;;;;;;5029005;28;19925;-56
2022/02/16 02:25:49;;;;;;;;;;;;;;;;;;5046093;28;19971;-54
2022/02/16 02:28:15;;;;;;;;;;;;;;;;;;5046418;28;19932;-56
2022/02/16 02:30:41;;;;;;;;;;;;;;;;;;5046678;28;19927;-56
2022/02/16 02:33:09;;;;;;;;;;;;;;;;;;5061876;28;20012;-56
2022/02/16 02:35:35;;;;;;;;;;;;;;;;;;5044444;28;19921;-55
2022/02/16 02:38:00;;;;;;;;;;;;;;;;;;5046627;28;19925;-54
2022/02/16 02:40:26;;;;;;;;;;;;;;;;;;5046296;28;19935;-52
2022/02/16 02:42:51;;;;;;;;;;;;;;;;;;5027245;28;19955;-55
2022/02/16 02:45:16;;;;;;;;;;;;;;;;;;5047079;28;20118;-53
2022/02/16 02:47:45;;;;;;;;;;;;;;;;;;5045821;28;20009;-56
2022/02/16 02:50:11;;;;;;;;;;;;;;;;;;5047838;28;19932;-55
2022/02/16 02:52:36;;;;;;;;;;;;;;;;;;5026164;28;21514;-56
2022/02/16 02:55:02;;;;;;;;;;;;;;;;;;5046243;28;19925;-56
2022/02/16 02:57:27;;;;;;;;;;;;;;;;;;5044948;28;19967;-55
2022/02/16 02:59:53;;;;;;;;;;;;;;;;;;5046299;28;19979;-53
2022/02/16 03:02:18;;;;;;;;;;;;;;;;;;5045285;28;19989;-56
2022/02/16 03:04:44;;;;;;;;;;;;;;;;;;5045294;28;20356;-54
2022/02/16 03:07:10;;;;;;;;;;;;;;;;;;5026194;28;19921;-55
2022/02/16 03:09:35;;;;;;;;;;;;;;;;;;5044305;28;20392;-54
2022/02/16 03:12:00;;;;;;;;;;;;;;;;;;5046028;28;19920;-52
2022/02/16 03:14:28;;;;;;;;;;;;;;;;;;5045528;28;19925;-53
2022/02/16 03:16:53;;;;;;;;;;;;;;;;;;5044951;28;19967;-53
2022/02/16 03:19:18;;;;;;;;;;;;;;;;;;5025517;28;20000;-54
2022/02/16 03:21:44;;;;;;;;;;;;;;;;;;5045682;28;19956;-53
2022/02/16 03:24:10;;;;;;;;;;;;;;;;;;5046679;28;19933;-53
2022/02/16 03:26:35;;;;;;;;;;;;;;;;;;5045559;28;19920;-52
2022/02/16 03:29:04;;;;;;;;;;;;;;;;;;5044218;28;20312;-55
2022/02/16 03:31:29;;;;;;;;;;;;;;;;;;5027028;28;20043;-55
2022/02/16 03:33:54;;;;;;;;;;;;;;;;;;5047256;28;19994;-54
2022/02/16 03:36:20;;;;;;;;;;;;;;;;;;5044880;28;19920;-52
2022/02/16 03:38:45;;;;;;;;;;;;;;;;;;5043655;28;19932;-54
2022/02/16 03:41:11;;;;;;;;;;;;;;;;;;5026610;28;20016;-56
2022/02/16 03:43:39;;;;;;;;;;;;;;;;;;5038591;28;20956;-55
2022/02/16 03:46:05;;;;;;;;;;;;;;;;;;5058380;28;20365;-53
2022/02/16 03:48:30;;;;;;;;;;;;;;;;;;5044855;28;19929;-56
2022/02/16 03:50:56;;;;;;;;;;;;;;;;;;5046609;28;20286;-54
2022/02/16 03:53:21;;;;;;;;;;;;;;;;;;5025045;28;19920;-55
2022/02/16 03:55:47;;;;;;;;;;;;;;;;;;5036247;28;20528;-56
2022/02/16 03:58:13;;;;;;;;;;;;;;;;;;5046407;28;19920;-55
2022/02/16 04:00:39;;;;;;;;;;;;;;;;;;5044620;28;20290;-55
2022/02/16 04:03:04;;;;;;;;;;;;;;;;;;5044860;28;19928;-53
2022/02/16 04:05:30;;;;;;;;;;;;;;;;;;5045651;28;19963;-55
2022/02/16 04:07:55;;;;;;;;;;;;;;;;;;5044595;28;21037;-55
2022/02/16 04:10:21;;;;;;;;;;;;;;;;;;5028359;28;20496;-55
2022/02/16 04:12:46;;;;;;;;;;;;;;;;;;5026303;28;20648;-53
2022/02/16 04:15:14;;;;;;;;;;;;;;;;;;5028630;28;20552;-53
2022/02/16 04:17:39;;;;;;;;;;;;;;;;;;5046461;28;19936;-54
2022/02/16 04:20:08;;;;;;;;;;;;;;;;;;5046510;28;20624;-53
2022/02/16 04:22:33;;;;;;;;;;;;;;;;;;5025538;28;19920;-56
2022/02/16 04:24:59;;;;;;;;;;;;;;;;;;5027230;28;19935;-56
2022/02/16 04:27:24;;;;;;;;;;;;;;;;;;5028671;28;20379;-56
2022/02/16 04:29:50;;;;;;;;;;;;;;;;;;5059293;28;19971;-55
2022/02/16 04:32:15;;;;;;;;;;;;;;;;;;5045500;28;19925;-57
2022/02/16 04:34:41;;;;;;;;;;;;;;;;;;5027364;28;19971;-56
2022/02/16 04:37:06;;;;;;;;;;;;;;;;;;5046275;28;19952;-56
2022/02/16 04:39:35;;;;;;;;;;;;;;;;;;5026810;28;19920;-56
2022/02/16 04:42:01;;;;;;;;;;;;;;;;;;5029823;28;19928;-54
2022/02/16 04:44:26;;;;;;;;;;;;;;;;;;5045020;28;19924;-56
2022/02/16 04:46:52;;;;;;;;;;;;;;;;;;5051003;28;19936;-56
2022/02/16 04:49:18;;;;;;;;;;;;;;;;;;5044390;28;20759;-53
2022/02/16 04:51:43;;;;;;;;;;;;;;;;;;5027352;28;19925;-56
2022/02/16 04:54:09;;;;;;;;;;;;;;;;;;5044917;28;19928;-57
2022/02/16 04:56:34;;;;;;;;;;;;;;;;;;5025642;28;19950;-57
2022/02/16 04:59:00;;;;;;;;;;;;;;;;;;5026009;28;20027;-55
2022/02/16 05:01:26;;;;;;;;;;;;;;;;;;5044518;28;20179;-57
2022/02/16 05:03:51;;;;;;;;;;;;;;;;;;5046358;28;19920;-56
2022/02/16 05:06:18;;;;;;;;;;;;;;;;;;5044947;28;19924;-58
2022/02/16 05:08:46;;;;;;;;;;;;;;;;;;5043857;28;20270;-57
2022/02/16 05:11:11;;;;;;;;;;;;;;;;;;5042288;28;19924;-55
2022/02/16 05:13:37;;;;;;;;;;;;;;;;;;5043603;28;20269;-57
2022/02/16 05:16:02;;;;;;;;;;;;;;;;;;5049064;28;19925;-58
2022/02/16 05:18:28;;;;;;;;;;;;;;;;;;5047968;28;19921;-57
2022/02/16 05:20:53;;;;;;;;;;;;;;;;;;5027216;28;19925;-57
2022/02/16 05:23:19;;;;;;;;;;;;;;;;;;5026879;28;20353;-57
2022/02/16 05:25:44;;;;;;;;;;;;;;;;;;5029439;28;19928;-57
2022/02/16 05:28:10;;;;;;;;;;;;;;;;;;5027285;28;20441;-57
2022/02/16 05:30:35;;;;;;;;;;;;;;;;;;5025723;28;19955;-56
2022/02/16 05:33:01;;;;;;;;;;;;;;;;;;5028094;28;19925;-56
2022/02/16 05:35:26;;;;;;;;;;;;;;;;;;5026684;28;19932;-57
2022/02/16 05:37:52;;;;;;;;;;;;;;;;;;5025256;28;19925;-56
2022/02/16 05:40:17;;;;;;;;;;;;;;;;;;5026724;28;19921;-57
2022/02/16 05:42:43;;;;;;;;;;;;;;;;;;5028641;28;20019;-58
2022/02/16 05:45:08;;;;;;;;;;;;;;;;;;5028034;28;19967;-58
2022/02/16 05:47:34;;;;;;;;;;;;;;;;;;5027248;28;20039;-58
2022/02/16 05:49:59;;;;;;;;;;;;;;;;;;5027958;28;19965;-58
2022/02/16 05:52:28;;;;;;;;;;;;;;;;;;5028058;28;21632;-57
2022/02/16 05:54:53;;;;;;;;;;;;;;;;;;5028738;28;20048;-58
2022/02/16 05:57:19;;;;;;;;;;;;;;;;;;5028501;28;20019;-59
2022/02/16 05:59:44;;;;;;;;;;;;;;;;;;5029155;28;19983;-58
2022/02/16 06:02:09;;;;;;;;;;;;;;;;;;5027134;28;20123;-57
2022/02/16 06:04:35;;;;;;;;;;;;;;;;;;5027602;28;19925;-58
2022/02/16 06:07:00;;;;;;;;;;;;;;;;;;5028925;28;20396;-59
2022/02/16 06:09:26;;;;;;;;;;;;;;;;;;5027564;28;19932;-58
2022/02/16 06:11:51;;;;;;;;;;;;;;;;;;5026719;28;19924;-59
2022/02/16 06:14:17;;;;;;;;;;;;;;;;;;5025827;28;19944;-59
2022/02/16 06:16:42;;;;;;;;;;;;;;;;;;5027847;28;19921;-59
2022/02/16 06:19:08;;;;;;;;;;;;;;;;;;5028459;28;19928;-59
2022/02/16 06:21:33;;;;;;;;;;;;;;;;;;5028643;28;20004;-59
2022/02/16 06:23:59;;;;;;;;;;;;;;;;;;5029471;28;20042;-58
2022/02/16 06:26:24;;;;;;;;;;;;;;;;;;5026628;28;19925;-59
2022/02/16 06:28:50;;;;;;;;;;;;;;;;;;5028625;28;20575;-58
2022/02/16 06:31:15;;;;;;;;;;;;;;;;;;5029778;28;19936;-59
2022/02/16 06:33:40;;;;;;;;;;;;;;;;;;5026870;28;19967;-59
2022/02/16 06:36:06;;;;;;;;;;;;;;;;;;5028252;28;19924;-59
2022/02/16 06:38:31;;;;;;;;;;;;;;;;;;5027482;28;20000;-58
2022/02/16 06:40:57;;;;;;;;;;;;;;;;;;5025325;28;19922;-59
2022/02/16 06:43:22;;;;;;;;;;;;;;;;;;5041435;28;19960;-59
2022/02/16 06:45:48;;;;;;;;;;;;;;;;;;5024903;28;19928;-60
2022/02/16 06:48:13;;;;;;;;;;;;;;;;;;5029815;28;20411;-58
2022/02/16 06:50:39;;;;;;;;;;;;;;;;;;5028309;28;19928;-59
2022/02/16 06:53:04;;;;;;;;;;;;;;;;;;5026509;28;20247;-60
2022/02/16 06:55:30;;;;;;;;;;;;;;;;;;5022535;28;19956;-59
2022/02/16 06:57:57;;;;;;;;;;;;;;;;;;5027821;28;19975;-60
2022/02/16 07:00:22;;;;;;;;;;;;;;;;;;5026634;28;20906;-59
2022/02/16 07:02:48;;;;;;;;;;;;;;;;;;5027456;28;19956;-59
2022/02/16 07:05:14;;;;;;;;;;;;;;;;;;5026936;28;19921;-59
2022/02/16 07:07:40;;;;;;;;;;;;;;;;;;5026031;28;20785;-59
2022/02/16 07:10:05;;;;;;;;;;;;;;;;;;5025798;28;19932;-58
2022/02/16 07:12:32;;;;;;;;;;;;;;;;;;5025693;28;20340;-59
2022/02/16 07:14:57;;;;;;;;;;;;;;;;;;5027844;28;20040;-60
2022/02/16 07:17:23;;;;;;;;;;;;;;;;;;5027777;28;20023;-60
2022/02/16 07:19:48;;;;;;;;;;;;;;;;;;5030412;28;20386;-58
2022/02/16 07:22:14;;;;;;;;;;;;;;;;;;5029654;28;20533;-59
2022/02/16 07:24:39;;;;;;;;;;;;;;;;;;5027334;28;20842;-57
2022/02/16 07:27:05;;;;;;;;;;;;;;;;;;5027979;28;19932;-58
2022/02/16 07:29:30;;;;;;;;;;;;;;;;;;5027957;28;19933;-59
2022/02/16 07:31:55;;;;;;;;;;;;;;;;;;5028278;28;19924;-58
2022/02/16 07:34:24;;;;;;;;;;;;;;;;;;5027406;28;20447;-59
2022/02/16 07:36:49;;;;;;;;;;;;;;;;;;5027572;28;20698;-58
2022/02/16 07:39:14;;;;;;;;;;;;;;;;;;5026730;28;19921;-58
2022/02/16 07:41:40;;;;;;;;;;;;;;;;;;5026125;28;20362;-58
2022/02/16 07:44:05;;;;;;;;;;;;;;;;;;5027211;28;20398;-60
2022/02/16 07:46:31;;;;;;;;;;;;;;;;;;5026149;28;19975;-59
2022/02/16 07:48:56;;;;;;;;;;;;;;;;;;5027386;28;19944;-58
2022/02/16 07:51:22;;;;;;;;;;;;;;;;;;5033458;28;19924;-59
2022/02/16 07:53:48;;;;;;;;;;;;;;;;;;5040899;28;19925;-60
2022/02/16 07:56:13;;;;;;;;;;;;;;;;;;5024791;28;20037;-60
2022/02/16 07:58:39;;;;;;;;;;;;;;;;;;5025440;28;19925;-60
2022/02/16 08:01:04;;;;;;;;;;;;;;;;;;5026940;28;19921;-61
2022/02/16 08:03:30;;;;;;;;;;;;;;;;;;5025259;28;19974;-61
2022/02/16 08:05:55;;;;;;;;;;;;;;;;;;5025029;28;19967;-60
2022/02/16 08:08:21;;;;;;;;;;;;;;;;;;5026983;28;19972;-61
2022/02/16 08:10:50;;;;;;;;;;;;;;;;;;5023602;28;19921;-58
2022/02/16 08:13:15;;;;;;;;;;;;;;;;;;5025122;28;20508;-60
2022/02/16 08:15:40;;;;;;;;;;;;;;;;;;5024012;28;19927;-59
2022/02/16 08:18:06;;;;;;;;;;;;;;;;;;5024057;28;20413;-60
2022/02/16 08:20:31;;;;;;;;;;;;;;;;;;5025084;28;20331;-60
2022/02/16 08:22:57;;;;;;;;;;;;;;;;;;5025849;28;19927;-60
2022/02/16 08:25:22;;;;;;;;;;;;;;;;;;5023219;28;19968;-59
2022/02/16 08:27:48;;;;;;;;;;;;;;;;;;5024814;28;19931;-59
2022/02/16 08:30:13;;;;;;;;;;;;;;;;;;5040882;28;19968;-59
2022/02/16 08:32:39;;;;;;;;;;;;;;;;;;5024465;28;20010;-59
2022/02/16 08:35:04;;;;;;;;;;;;;;;;;;5024832;28;19967;-60
2022/02/16 08:37:30;;;;;;;;;;;;;;;;;;5023327;28;20477;-59
2022/02/16 08:39:55;;;;;;;;;;;;;;;;;;5024730;28;19931;-59
2022/02/16 08:42:20;;;;;;;;;;;;;;;;;;5025274;28;19940;-59
2022/02/16 08:44:46;;;;;;;;;;;;;;;;;;5023256;28;19925;-59
2022/02/16 08:47:12;;;;;;;;;;;;;;;;;;5025881;28;19921;-60
2022/02/16 08:49:43;;;;;;;;;;;;;;;;;;5027777;28;19989;-60
2022/02/16 08:52:08;;;;;;;;;;;;;;;;;;5030014;28;20374;-59
2022/02/16 08:54:34;;;;;;;;;;;;;;;;;;5030116;28;19921;-60
2022/02/16 08:57:00;;;;;;;;;;;;;;;;;;5032727;28;19925;-60
2022/02/16 08:59:25;;;;;;;;;;;;;;;;;;5030595;28;20545;-59
2022/02/16 09:01:51;;;;;;;;;;;;;;;;;;5028615;28;19929;-60
2022/02/16 09:04:17;;;;;;;;;;;;;;;;;;5029517;28;20028;-60
2022/02/16 09:07:27;;;;;;;;;;;;;;;;;;5028360;28;19921;-59
2022/02/16 09:09:28;;;;;;;;;;;;;;;;;;5028153;28;19928;-59
2022/02/16 09:11:53;;;;;;;;;;;;;;;;;;5027953;28;19928;-60
2022/02/16 09:14:19;;;;;;;;;;;;;;;;;;5028884;28;20382;-60
2022/02/16 09:16:44;;;;;;;;;;;;;;;;;;5028880;28;19925;-60
2022/02/16 09:19:10;;;;;;;;;;;;;;;;;;5028722;28;19956;-61
2022/02/16 09:21:35;;;;;;;;;;;;;;;;;;5028838;28;19936;-61
2022/02/16 09:24:01;;;;;;;;;;;;;;;;;;5031831;28;20015;-61
2022/02/16 09:26:28;;;;;;;;;;;;;;;;;;5028543;28;19961;-57
2022/02/16 09:28:54;;;;;;;;;;;;;;;;;;5028200;28;20645;-59
2022/02/16 09:31:19;;;;;;;;;;;;;;;;;;5028632;28;20340;-59
2022/02/16 09:33:45;;;;;;;;;;;;;;;;;;5026159;28;19921;-58
2022/02/16 09:36:10;;;;;;;;;;;;;;;;;;5027786;28;19928;-59
2022/02/16 09:38:36;;;;;;;;;;;;;;;;;;5028058;28;19959;-59
2022/02/16 09:41:01;;;;;;;;;;;;;;;;;;5028470;28;19921;-58
2022/02/16 09:43:27;;;;;;;;;;;;;;;;;;5025799;28;19945;-58
2022/02/16 09:45:55;;;;;;;;;;;;;;;;;;5029041;28;19933;-59
2022/02/16 09:48:20;;;;;;;;;;;;;;;;;;5028420;28;20459;-58
2022/02/16 09:50:46;;;;;;;;;;;;;;;;;;5030263;28;20004;-59
2022/02/16 09:53:11;;;;;;;;;;;;;;;;;;5029801;28;20302;-59
2022/02/16 09:55:37;;;;;;;;;;;;;;;;;;5029324;28;19971;-59
2022/02/16 09:58:02;;;;;;;;;;;;;;;;;;5030136;28;19925;-60
2022/02/16 10:00:27;;;;;;;;;;;;;;;;;;5029462;28;19933;-56
2022/02/16 10:02:53;;;;;;;;;;;;;;;;;;5028519;28;19925;-59
2022/02/16 10:05:18;;;;;;;;;;;;;;;;;;5027645;28;19921;-59
2022/02/16 10:07:44;;;;;;;;;;;;;;;;;;5029155;28;19927;-59
2022/02/16 10:10:09;;;;;;;;;;;;;;;;;;5026739;28;20427;-60
2022/02/16 10:12:35;;;;;;;;;;;;;;;;;;5027367;28;19917;-60
2022/02/16 10:15:00;;;;;;;;;;;;;;;;;;5026914;28;19932;-60
2022/02/16 10:17:25;;;;;;;;;;;;;;;;;;5025660;28;19928;-59
2022/02/16 10:19:51;;;;;;;;;;;;;;;;;;5027864;28;20031;-60
2022/02/16 10:22:16;;;;;;;;;;;;;;;;;;5027154;28;20275;-60
2022/02/16 10:24:43;;;;;;;;;;;;;;;;;;5027066;28;19933;-60
2022/02/16 10:27:09;;;;;;;;;;;;;;;;;;5028704;28;20253;-61
2022/02/16 10:29:34;;;;;;;;;;;;;;;;;;5027303;28;19939;-61
2022/02/16 10:32:00;;;;;;;;;;;;;;;;;;5027016;28;19931;-60
2022/02/16 10:34:25;;;;;;;;;;;;;;;;;;5026684;28;20298;-60
2022/02/16 10:36:51;;;;;;;;;;;;;;;;;;5029703;28;19920;-58
2022/02/16 10:39:16;;;;;;;;;;;;;;;;;;5047888;28;19925;-59
2022/02/16 10:41:42;;;;;;;;;;;;;;;;;;5046518;28;20028;-59
2022/02/16 10:44:07;;;;;;;;;;;;;;;;;;5047655;28;20475;-59
2022/02/16 10:46:33;;;;;;;;;;;;;;;;;;5045255;28;20003;-59
2022/02/16 10:48:58;;;;;;;;;;;;;;;;;;5046848;28;19943;-60
2022/02/16 10:51:23;;;;;;;;;;;;;;;;;;5047842;28;19924;-60
2022/02/16 10:53:51;;;;;;;;;;;;;;;;;;5046861;28;19930;-58
2022/02/16 10:56:16;;;;;;;;;;;;;;;;;;5046522;28;19925;-60
2022/02/16 10:58:42;;;;;;;;;;;;;;;;;;5045326;28;19924;-59
2022/02/16 11:01:07;;;;;;;;;;;;;;;;;;5046088;28;19920;-59
2022/02/16 11:03:33;;;;;;;;;;;;;;;;;;5045743;28;19921;-60
2022/02/16 11:05:58;;;;;;;;;;;;;;;;;;5046041;28;19921;-59
2022/02/16 11:08:24;;;;;;;;;;;;;;;;;;5045687;28;20309;-60
2022/02/16 11:10:49;;;;;;;;;;;;;;;;;;5047415;28;19917;-60
2022/02/16 11:13:15;;;;;;;;;;;;;;;;;;5047339;28;20342;-60
2022/02/16 11:15:40;;;;;;;;;;;;;;;;;;5045212;28;19943;-59
2022/02/16 11:18:06;;;;;;;;;;;;;;;;;;5046547;28;19925;-59
2022/02/16 11:20:31;;;;;;;;;;;;;;;;;;5047236;28;19927;-60
2022/02/16 11:22:57;;;;;;;;;;;;;;;;;;5048614;28;21676;-60
2022/02/16 11:25:22;;;;;;;;;;;;;;;;;;5046268;28;19939;-60
2022/02/16 11:27:47;;;;;;;;;;;;;;;;;;5048153;28;19924;-61
2022/02/16 11:30:13;;;;;;;;;;;;;;;;;;5047935;28;19932;-60
2022/02/16 11:32:38;;;;;;;;;;;;;;;;;;5046975;28;19921;-60
2022/02/16 11:35:04;;;;;;;;;;;;;;;;;;5046523;28;20607;-60
2022/02/16 11:37:29;;;;;;;;;;;;;;;;;;5046767;28;20356;-60
2022/02/16 11:39:55;;;;;;;;;;;;;;;;;;5048001;28;19925;-60
2022/02/16 11:42:20;;;;;;;;;;;;;;;;;;5046357;28;19928;-59
2022/02/16 11:44:45;;;;;;;;;;;;;;;;;;5045710;28;19916;-59
2022/02/16 11:47:11;;;;;;;;;;;;;;;;;;5043303;28;20413;-60
2022/02/16 11:49:37;;;;;;;;;;;;;;;;;;5045329;28;19999;-60
2022/02/16 11:52:02;;;;;;;;;;;;;;;;;;5045261;28;19985;-59
2022/02/16 11:54:28;;;;;;;;;;;;;;;;;;5046802;28;19925;-59
2022/02/16 11:56:54;;;;;;;;;;;;;;;;;;5046306;28;19921;-60
2022/02/16 11:59:19;;;;;;;;;;;;;;;;;;5045283;28;19924;-60
2022/02/16 12:01:45;;;;;;;;;;;;;;;;;;5048007;28;19924;-60
2022/02/16 12:04:10;;;;;;;;;;;;;;;;;;5044341;28;19921;-58
2022/02/16 12:06:36;;;;;;;;;;;;;;;;;;5044327;28;19928;-57
2022/02/16 12:09:01;;;;;;;;;;;;;;;;;;5047349;28;19971;-57
2022/02/16 12:11:29;;;;;;;;;;;;;;;;;;5031213;28;19925;-59
2022/02/16 12:13:58;;;;;;;;;;;;;;;;;;5047067;28;19925;-61
2022/02/16 12:16:23;;;;;;;;;;;;;;;;;;5050043;28;19984;-61
2022/02/16 12:18:49;;;;;;;;;;;;;;;;;;5053300;28;19993;-62
2022/02/16 12:21:14;;;;;;;;;;;;;;;;;;5050670;28;19921;-60
2022/02/16 12:23:40;;;;;;;;;;;;;;;;;;5045493;28;19921;-60
2022/02/16 12:26:05;;;;;;;;;;;;;;;;;;5050456;28;20321;-60
2022/02/16 12:28:31;;;;;;;;;;;;;;;;;;5048226;28;20378;-58
2022/02/16 12:30:56;;;;;;;;;;;;;;;;;;5049638;28;20590;-59
2022/02/16 12:33:22;;;;;;;;;;;;;;;;;;5049507;28;19925;-58
2022/02/16 12:35:47;;;;;;;;;;;;;;;;;;5050081;28;19924;-59
2022/02/16 12:38:13;;;;;;;;;;;;;;;;;;5049950;28;20014;-59
2022/02/16 12:40:38;;;;;;;;;;;;;;;;;;5049142;28;20413;-60
2022/02/16 12:43:03;;;;;;;;;;;;;;;;;;5048567;28;19916;-60
2022/02/16 12:45:29;;;;;;;;;;;;;;;;;;5048666;28;19928;-59
2022/02/16 12:47:58;;;;;;;;;;;;;;;;;;5048441;28;19931;-62
2022/02/16 12:50:23;;;;;;;;;;;;;;;;;;5048684;28;19940;-60
2022/02/16 12:52:49;;;;;;;;;;;;;;;;;;5049615;28;19920;-58
2022/02/16 12:55:14;;;;;;;;;;;;;;;;;;5048447;28;19924;-60
2022/02/16 12:57:40;;;;;;;;;;;;;;;;;;5048827;28;19928;-60
2022/02/16 13:02:49;;;;;;;;;;;;;;;;;;5047320;28;19976;-60
2022/02/16 13:05:15;;;;;;;;;;;;;;;;;;5041530;28;19933;-60
2022/02/16 13:07:40;;;;;;;;;;;;;;;;;;5050507;28;19921;-59
2022/02/16 13:10:05;;;;;;;;;;;;;;;;;;5051169;28;20319;-61
2022/02/16 13:12:31;;;;;;;;;;;;;;;;;;5048753;28;19925;-60
2022/02/16 13:15:03;;;;;;;;;;;;;;;;;;5031140;28;19925;-61
2022/02/16 13:17:29;;;;;;;;;;;;;;;;;;5030433;28;19951;-59
2022/02/16 13:19:54;;;;;;;;;;;;;;;;;;5030905;28;19953;-58
2022/02/16 13:22:20;;;;;;;;;;;;;;;;;;5028083;28;19933;-60
2022/02/16 13:24:46;;;;;;;;;;;;;;;;;;5043723;28;19944;-59
2022/02/16 13:27:11;;;;;;;;;;;;;;;;;;5028180;28;19921;-60
2022/02/16 13:29:37;;;;;;;;;;;;;;;;;;5024430;28;19933;-60
2022/02/16 13:32:03;;;;;;;;;;;;;;;;;;5026466;28;20083;-60
2022/02/16 13:34:28;;;;;;;;;;;;;;;;;;5029322;28;19925;-60
2022/02/16 13:36:53;;;;;;;;;;;;;;;;;;5029120;28;19928;-60
2022/02/16 13:39:19;;;;;;;;;;;;;;;;;;5025639;28;19925;-60
2022/02/16 13:41:44;;;;;;;;;;;;;;;;;;5025551;28;20416;-60
2022/02/16 13:44:12;;;;;;;;;;;;;;;;;;5028103;28;19963;-59
2022/02/16 13:46:37;;;;;;;;;;;;;;;;;;5028332;28;19925;-60
2022/02/16 13:49:02;;;;;;;;;;;;;;;;;;5027667;28;19944;-61
2022/02/16 13:51:28;;;;;;;;;;;;;;;;;;5028386;28;20065;-60
2022/02/16 13:53:53;;;;;;;;;;;;;;;;;;5028360;28;20028;-60
2022/02/16 13:56:19;;;;;;;;;;;;;;;;;;5028455;28;19948;-60
2022/02/16 13:58:44;;;;;;;;;;;;;;;;;;5029658;28;19925;-58
2022/02/16 14:01:10;;;;;;;;;;;;;;;;;;5028595;28;19951;-59
2022/02/16 14:03:37;;;;;;;;;;;;;;;;;;5027192;28;19929;-60
2022/02/16 14:06:02;;;;;;;;;;;;;;;;;;5028813;28;19925;-60
2022/02/16 14:08:28;;;;;;;;;;;;;;;;;;5028551;28;20297;-59
2022/02/16 14:10:53;;;;;;;;;;;;;;;;;;5030772;28;19921;-60
2022/02/16 14:13:21;;;;;;;;;;;;;;;;;;5030172;28;20389;-59
2022/02/16 14:15:46;;;;;;;;;;;;;;;;;;5032507;28;20284;-60
2022/02/16 14:18:11;;;;;;;;;;;;;;;;;;5031662;28;20008;-60
2022/02/16 14:20:37;;;;;;;;;;;;;;;;;;5030324;28;19961;-59
2022/02/16 14:23:02;;;;;;;;;;;;;;;;;;5030986;28;19925;-59
2022/02/16 14:25:28;;;;;;;;;;;;;;;;;;5029495;28;19936;-59
2022/02/16 14:27:53;;;;;;;;;;;;;;;;;;5028573;28;19921;-58
2022/02/16 14:30:20;;;;;;;;;;;;;;;;;;5027482;28;20935;-60
2022/02/16 14:32:46;;;;;;;;;;;;;;;;;;5026065;28;19921;-60
2022/02/16 14:35:11;;;;;;;;;;;;;;;;;;5028063;28;19920;-59
2022/02/16 14:37:37;;;;;;;;;;;;;;;;;;5026467;28;19925;-58
2022/02/16 14:40:03;;;;;;;;;;;;;;;;;;5028040;28;19921;-59
2022/02/16 14:42:28;;;;;;;;;;;;;;;;;;5052589;28;20068;-59
2022/02/16 14:44:54;;;;;;;;;;;;;;;;;;5027165;28;19921;-59
2022/02/16 14:47:20;;;;;;;;;;;;;;;;;;5044665;28;20019;-60
2022/02/16 14:49:46;;;;;;;;;;;;;;;;;;5045800;28;20070;-59
2022/02/16 14:52:11;;;;;;;;;;;;;;;;;;5044928;28;19920;-59
2022/02/16 14:54:37;;;;;;;;;;;;;;;;;;5046860;28;20833;-59
2022/02/16 14:57:02;;;;;;;;;;;;;;;;;;5045620;28;20103;-59
2022/02/16 14:59:28;;;;;;;;;;;;;;;;;;5045685;28;19921;-59
2022/02/16 15:01:55;;;;;;;;;;;;;;;;;;5047148;28;19925;-59
2022/02/16 15:04:20;;;;;;;;;;;;;;;;;;5028102;28;19935;-59
2022/02/16 15:06:46;;;;;;;;;;;;;;;;;;5046001;28;19921;-59
2022/02/16 15:09:11;;;;;;;;;;;;;;;;;;5046237;28;19932;-60
2022/02/16 15:11:37;;;;;;;;;;;;;;;;;;5046061;28;19981;-60
2022/02/16 15:14:08;;;;;;;;;;;;;;;;;;5047230;28;19968;-59
2022/02/16 15:16:33;;;;;;;;;;;;;;;;;;5027171;28;19954;-60
2022/02/16 15:18:59;;;;;;;;;;;;;;;;;;5047638;28;19921;-59
2022/02/16 15:21:25;;;;;;;;;;;;;;;;;;5045193;28;19976;-60
2022/02/16 15:23:50;;;;;;;;;;;;;;;;;;5046186;28;20405;-59
2022/02/16 15:26:16;;;;;;;;;;;;;;;;;;5046366;28;19927;-60
2022/02/16 15:28:41;;;;;;;;;;;;;;;;;;5044045;28;19928;-60
2022/02/16 15:31:06;;;;;;;;;;;;;;;;;;5046829;28;19924;-60
2022/02/16 15:33:32;;;;;;;;;;;;;;;;;;5043957;28;19967;-60
2022/02/16 15:35:58;;;;;;;;;;;;;;;;;;5047844;28;19920;-59
2022/02/16 15:38:23;;;;;;;;;;;;;;;;;;5046891;28;19920;-60
2022/02/16 15:40:49;;;;;;;;;;;;;;;;;;5047012;28;19921;-60
2022/02/16 15:43:14;;;;;;;;;;;;;;;;;;5046764;28;19920;-60
2022/02/16 15:45:39;;;;;;;;;;;;;;;;;;5046892;28;19941;-60
2022/02/16 15:48:05;;;;;;;;;;;;;;;;;;5047229;28;19931;-57
2022/02/16 15:50:31;;;;;;;;;;;;;;;;;;5029143;28;19928;-60
2022/02/16 15:52:56;;;;;;;;;;;;;;;;;;5047428;28;19932;-60
2022/02/16 15:55:21;;;;;;;;;;;;;;;;;;5045983;28;20011;-60
2022/02/16 15:57:47;;;;;;;;;;;;;;;;;;5028219;28;19929;-60
2022/02/16 16:00:12;;;;;;;;;;;;;;;;;;5046228;28;19921;-60
2022/02/16 16:02:38;;;;;;;;;;;;;;;;;;5044961;28;20417;-60
2022/02/16 16:05:05;;;;;;;;;;;;;;;;;;5046564;28;20756;-61
2022/02/16 16:07:31;;;;;;;;;;;;;;;;;;5026399;28;19927;-60
2022/02/16 16:09:56;;;;;;;;;;;;;;;;;;5046370;28;20625;-60
2022/02/16 16:12:21;;;;;;;;;;;;;;;;;;5043892;28;19916;-60
2022/02/16 16:14:47;;;;;;;;;;;;;;;;;;5045695;28;19924;-61
2022/02/16 16:17:12;;;;;;;;;;;;;;;;;;5045391;28;19925;-61
2022/02/16 16:19:38;;;;;;;;;;;;;;;;;;5045130;28;19967;-60
2022/02/16 16:22:03;;;;;;;;;;;;;;;;;;5045168;28;19924;-61
2022/02/16 16:24:29;;;;;;;;;;;;;;;;;;5043915;28;19928;-61
2022/02/16 16:26:54;;;;;;;;;;;;;;;;;;5046431;28;19925;-60
2022/02/16 16:29:21;;;;;;;;;;;;;;;;;;5045158;28;19936;-60
2022/02/16 16:31:47;;;;;;;;;;;;;;;;;;5026934;28;19925;-60
2022/02/16 16:34:12;;;;;;;;;;;;;;;;;;5046656;28;20639;-59
2022/02/16 16:36:38;;;;;;;;;;;;;;;;;;5044666;28;20488;-60